createdAt,value
2019-02-04T00:01:02.607Z,1002.27
2019-02-04T00:02:12.820Z,1002.21
2019-02-04T00:03:22.888Z,1002.15
2019-02-04T00:04:32.761Z,1002.2
2019-02-04T00:05:42.617Z,1002.28
2019-02-04T00:06:52.780Z,1002.24
2019-02-04T00:08:02.694Z,1002.2
2019-02-04T00:09:13.096Z,1002.25
2019-02-04T00:10:23.577Z,1002.22
2019-02-04T00:11:34.056Z,1002.26
2019-02-04T00:12:44.788Z,1002.19
2019-02-04T00:13:55.564Z,1002.38
2019-02-04T00:15:06.329Z,1002.21
2019-02-04T00:16:16.589Z,1002.24
2019-02-04T00:17:26.961Z,1002.24
2019-02-04T00:18:37.384Z,1002.18
2019-02-04T00:19:47.520Z,1002.21
2019-02-04T00:20:57.613Z,1002.3
2019-02-04T00:22:07.812Z,1002.31
2019-02-04T00:23:17.904Z,1002.35
2019-02-04T00:24:28.004Z,1002.32
2019-02-04T00:25:38.127Z,1002.37
2019-02-04T00:26:51.471Z,1002.39
2019-02-04T00:28:01.556Z,1002.58
2019-02-04T00:29:11.628Z,1002.47
2019-02-04T00:30:21.723Z,1002.61
2019-02-04T00:31:31.833Z,1002.6
2019-02-04T00:32:41.928Z,1002.6
2019-02-04T00:33:52.019Z,1002.71
2019-02-04T00:35:02.107Z,1002.62
2019-02-04T00:36:12.178Z,1002.72
2019-02-04T00:37:22.022Z,1002.68
2019-02-04T00:38:32.106Z,1002.69
2019-02-04T00:39:42.177Z,1002.82
2019-02-04T00:40:52.256Z,1002.9
2019-02-04T00:42:02.086Z,1002.86
2019-02-04T00:43:12.194Z,1002.9
2019-02-04T00:44:22.275Z,1002.94
2019-02-04T00:45:32.103Z,1002.93
2019-02-04T00:46:51.920Z,1003.02
2019-02-04T00:48:02.063Z,1002.92
2019-02-04T00:49:12.148Z,1002.92
2019-02-04T00:50:21.974Z,1002.99
2019-02-04T00:51:32.065Z,1003.12
2019-02-04T00:52:42.159Z,1003.05
2019-02-04T00:53:52.311Z,1003.13
2019-02-04T00:55:02.390Z,1003.17
2019-02-04T00:56:12.702Z,1003.21
2019-02-04T00:57:23.411Z,1003.28
2019-02-04T00:58:34.369Z,1003.34
2019-02-04T00:59:44.558Z,1003.42
2019-02-04T01:00:55.025Z,1003.45
2019-02-04T01:02:06.283Z,1003.53
2019-02-04T01:03:16.921Z,1003.59
2019-02-04T01:04:27.312Z,1003.64
2019-02-04T01:05:37.558Z,1003.71
2019-02-04T01:06:47.644Z,1003.76
2019-02-04T01:07:57.458Z,1003.9
2019-02-04T01:09:07.951Z,1003.93
2019-02-04T01:10:20.401Z,1003.93
2019-02-04T01:11:29.951Z,1003.99
2019-02-04T01:12:39.773Z,1004.01
2019-02-04T01:13:49.938Z,1004.04
2019-02-04T01:15:00.032Z,1004.11
2019-02-04T01:16:10.122Z,1004.05
2019-02-04T01:17:20.218Z,1004.08
2019-02-04T01:18:30.040Z,1004.14
2019-02-04T01:19:40.113Z,1004.1
2019-02-04T01:20:49.955Z,1004.09
2019-02-04T01:22:00.036Z,1004.13
2019-02-04T01:23:10.120Z,1004.22
2019-02-04T01:24:20.188Z,1004.15
2019-02-04T01:25:30.281Z,1004.39
2019-02-04T01:26:40.378Z,1004.29
2019-02-04T01:27:50.453Z,1004.28
2019-02-04T01:29:00.531Z,1004.32
2019-02-04T01:30:10.703Z,1004.33
2019-02-04T01:31:20.524Z,1004.34
2019-02-04T01:32:30.596Z,1004.27
2019-02-04T01:33:40.416Z,1004.35
2019-02-04T01:34:50.236Z,1004.35
2019-02-04T01:36:02.383Z,1004.37
2019-02-04T01:37:12.468Z,1004.4
2019-02-04T01:38:22.300Z,1004.41
2019-02-04T01:39:32.155Z,1004.41
2019-02-04T01:40:42.232Z,1004.38
2019-02-04T01:41:52.306Z,1004.42
2019-02-04T01:43:01.960Z,1004.43
2019-02-04T01:44:11.269Z,1004.45
2019-02-04T01:45:21.350Z,1004.47
2019-02-04T01:46:31.428Z,1004.4
2019-02-04T01:47:41.591Z,1004.55
2019-02-04T01:48:52.001Z,1004.5
2019-02-04T01:50:02.372Z,1004.61
2019-02-04T01:51:13.157Z,1004.62
2019-02-04T01:52:24.005Z,1004.68
2019-02-04T01:53:34.851Z,1004.68
2019-02-04T01:54:45.476Z,1004.71
2019-02-04T01:55:55.921Z,1004.77
2019-02-04T01:57:05.988Z,1004.73
2019-02-04T01:58:16.061Z,1004.8
2019-02-04T01:59:25.861Z,1004.85
2019-02-04T02:00:35.477Z,1004.81
2019-02-04T02:01:45.589Z,1004.84
2019-02-04T02:02:55.696Z,1004.89
2019-02-04T02:04:05.519Z,1004.94
2019-02-04T02:05:15.365Z,1004.9
2019-02-04T02:06:25.418Z,1004.98
2019-02-04T02:07:35.547Z,1005.01
2019-02-04T02:08:45.622Z,1004.99
2019-02-04T02:09:55.251Z,1004.95
2019-02-04T02:11:05.447Z,1004.95
2019-02-04T02:12:15.271Z,1004.97
2019-02-04T02:13:25.371Z,1005.05
2019-02-04T02:14:35.465Z,1005
2019-02-04T02:15:45.296Z,1005.04
2019-02-04T02:16:55.142Z,1005
2019-02-04T02:18:05.033Z,1005.05
2019-02-04T02:19:15.114Z,1005.14
2019-02-04T02:20:25.351Z,1005.08
2019-02-04T02:21:35.189Z,1005.13
2019-02-04T02:22:45.272Z,1005.14
2019-02-04T02:23:55.478Z,1005.17
2019-02-04T02:25:05.551Z,1005.11
2019-02-04T02:26:15.646Z,1005.17
2019-02-04T02:27:25.757Z,1005.16
2019-02-04T02:28:35.854Z,1005.18
2019-02-04T02:29:45.996Z,1005.21
2019-02-04T02:30:55.840Z,1005.14
2019-02-04T02:32:05.934Z,1005.19
2019-02-04T02:33:16.095Z,1005.2
2019-02-04T02:34:26.192Z,1005.25
2019-02-04T02:35:36.316Z,1005.23
2019-02-04T02:36:46.148Z,1005.17
2019-02-04T02:37:56.258Z,1005.15
2019-02-04T02:39:06.112Z,1005.12
2019-02-04T02:40:15.949Z,1005.34
2019-02-04T02:41:25.786Z,1005.21
2019-02-04T02:42:35.617Z,1005.21
2019-02-04T02:43:45.686Z,1005.18
2019-02-04T02:44:55.528Z,1005.19
2019-02-04T02:46:07.714Z,1005.23
2019-02-04T02:47:18.079Z,1005.29
2019-02-04T02:48:38.873Z,1005.4
2019-02-04T02:49:48.702Z,1005.4
2019-02-04T02:50:58.793Z,1005.39
2019-02-04T02:52:08.907Z,1005.43
2019-02-04T02:53:19.007Z,1005.43
2019-02-04T02:54:28.844Z,1005.5
2019-02-04T02:55:38.923Z,1005.47
2019-02-04T02:56:48.994Z,1005.51
2019-02-04T02:57:58.891Z,1005.51
2019-02-04T02:59:08.983Z,1005.63
2019-02-04T03:00:19.108Z,1005.53
2019-02-04T03:01:29.429Z,1005.54
2019-02-04T03:02:39.262Z,1005.57
2019-02-04T03:34:16.580Z,1006.07
2019-02-04T03:35:27.212Z,1006.06
2019-02-04T03:36:37.913Z,1006.09
2019-02-04T03:37:48.331Z,1006.11
2019-02-04T03:39:00.118Z,1006.19
2019-02-04T03:40:10.338Z,1006.19
2019-02-04T03:41:20.428Z,1006.25
2019-02-04T03:42:29.748Z,1006.31
2019-02-04T03:43:39.573Z,1006.28
2019-02-04T03:44:49.651Z,1006.35
2019-02-04T03:45:59.657Z,1006.39
2019-02-04T03:47:09.750Z,1006.44
2019-02-04T03:48:19.571Z,1006.41
2019-02-04T03:49:29.157Z,1006.4
2019-02-04T03:50:39.269Z,1006.4
2019-02-04T03:51:49.353Z,1006.41
2019-02-04T03:52:59.197Z,1006.4
2019-02-04T03:54:09.020Z,1006.45
2019-02-04T03:55:18.856Z,1006.44
2019-02-04T03:56:28.443Z,1006.52
2019-02-04T03:57:38.508Z,1006.55
2019-02-04T03:58:48.586Z,1006.51
2019-02-04T03:59:58.158Z,1006.54
2019-02-04T04:01:09.230Z,1006.58
2019-02-04T04:02:19.050Z,1006.71
2019-02-04T04:03:29.122Z,1006.67
2019-02-04T04:04:39.364Z,1006.71
2019-02-04T04:05:49.444Z,1006.71
2019-02-04T04:06:59.613Z,1006.67
2019-02-04T04:08:09.702Z,1006.74
2019-02-04T04:09:19.846Z,1006.68
2019-02-04T04:10:29.709Z,1006.71
2019-02-04T04:11:39.799Z,1006.63
2019-02-04T04:12:49.631Z,1006.62
2019-02-04T04:13:59.462Z,1006.6
2019-02-04T04:15:09.692Z,1006.58
2019-02-04T04:16:19.806Z,1006.56
2019-02-04T04:17:29.623Z,1006.56
2019-02-04T04:18:39.720Z,1006.61
2019-02-04T04:19:49.823Z,1006.62
2019-02-04T04:20:59.916Z,1006.54
2019-02-04T04:22:09.744Z,1006.62
2019-02-04T04:23:19.576Z,1006.77
2019-02-04T04:24:29.651Z,1006.57
2019-02-04T04:25:39.472Z,1006.64
2019-02-04T04:26:49.287Z,1006.66
2019-02-04T04:27:59.692Z,1006.6
2019-02-04T04:29:10.097Z,1006.61
2019-02-04T04:30:21.125Z,1006.67
2019-02-04T04:31:31.560Z,1006.68
2019-02-04T04:32:42.038Z,1006.71
2019-02-04T04:33:52.764Z,1006.77
2019-02-04T04:35:04.025Z,1006.82
2019-02-04T04:36:13.930Z,1006.88
2019-02-04T04:37:24.165Z,1006.89
2019-02-04T04:38:34.286Z,1006.91
2019-02-04T04:39:44.358Z,1006.97
2019-02-04T04:40:54.433Z,1006.96
2019-02-04T04:42:04.532Z,1007.05
2019-02-04T04:43:14.594Z,1007.04
2019-02-04T04:44:24.467Z,1007.02
2019-02-04T04:45:34.533Z,1007.07
2019-02-04T04:46:44.639Z,1007.22
2019-02-04T04:47:54.227Z,1007.15
2019-02-04T04:49:04.305Z,1007.16
2019-02-04T04:50:14.385Z,1007.2
2019-02-04T04:51:24.468Z,1007.25
2019-02-04T04:52:34.559Z,1007.27
2019-02-04T04:53:44.646Z,1007.3
2019-02-04T04:54:54.738Z,1007.34
2019-02-04T04:56:04.384Z,1007.36
2019-02-04T04:57:14.461Z,1007.38
2019-02-04T04:58:24.292Z,1007.43
2019-02-04T04:59:34.122Z,1007.33
2019-02-04T05:00:43.932Z,1007.38
2019-02-04T05:01:54.011Z,1007.35
2019-02-04T05:03:04.203Z,1007.36
2019-02-04T05:04:14.276Z,1007.42
2019-02-04T05:05:24.389Z,1007.39
2019-02-04T05:06:34.584Z,1007.49
2019-02-04T05:07:44.675Z,1007.48
2019-02-04T05:08:54.815Z,1007.46
2019-02-04T05:10:05.302Z,1007.49
2019-02-04T05:11:15.413Z,1007.56
2019-02-04T05:12:25.493Z,1007.57
2019-02-04T05:13:35.320Z,1007.63
2019-02-04T05:14:45.147Z,1007.62
2019-02-04T05:15:54.714Z,1007.65
2019-02-04T05:17:04.648Z,1007.69
2019-02-04T05:18:14.741Z,1007.73
2019-02-04T05:19:24.825Z,1007.84
2019-02-04T05:20:34.943Z,1007.81
2019-02-04T05:21:45.040Z,1007.87
2019-02-04T05:22:54.861Z,1007.84
2019-02-04T05:24:04.997Z,1007.87
2019-02-04T05:25:15.401Z,1007.91
2019-02-04T05:26:26.094Z,1007.89
2019-02-04T05:27:38.519Z,1007.93
2019-02-04T05:28:49.710Z,1007.95
2019-02-04T05:29:59.817Z,1007.99
2019-02-04T05:31:10.484Z,1008.02
2019-02-04T05:32:20.487Z,1008.04
2019-02-04T05:33:30.670Z,1008.08
2019-02-04T05:34:40.486Z,1008.15
2019-02-04T05:35:50.555Z,1008.07
2019-02-04T05:37:01.967Z,1008.11
2019-02-04T05:38:11.902Z,1008.16
2019-02-04T05:39:21.715Z,1008.09
2019-02-04T05:40:31.834Z,1008.11
2019-02-04T05:41:42.976Z,1008.2
2019-02-04T05:42:53.257Z,1008.14
2019-02-04T05:44:03.344Z,1008.17
2019-02-04T05:45:13.213Z,1008.12
2019-02-04T05:46:22.798Z,1008.15
2019-02-04T05:47:32.627Z,1008.18
2019-02-04T05:48:48.951Z,1008.15
2019-02-04T05:49:59.510Z,1008.21
2019-02-04T05:51:09.590Z,1008.27
2019-02-04T05:52:19.428Z,1008.33
2019-02-04T05:53:29.315Z,1008.3
2019-02-04T05:54:39.406Z,1008.33
2019-02-04T05:55:49.479Z,1008.34
2019-02-04T05:56:59.559Z,1008.37
2019-02-04T05:58:09.935Z,1008.39
2019-02-04T05:59:19.801Z,1008.46
2019-02-04T06:00:30.002Z,1008.44
2019-02-04T06:01:39.596Z,1008.45
2019-02-04T06:02:49.671Z,1008.42
2019-02-04T06:03:59.744Z,1008.46
2019-02-04T06:05:09.881Z,1008.49
2019-02-04T06:06:19.992Z,1008.54
2019-02-04T06:07:29.919Z,1008.47
2019-02-04T06:08:40.022Z,1008.51
2019-02-04T06:09:50.120Z,1008.53
2019-02-04T06:11:00.044Z,1008.57
2019-02-04T06:12:09.877Z,1008.56
2019-02-04T06:13:19.694Z,1008.6
2019-02-04T06:14:29.894Z,1008.65
2019-02-04T06:15:40.326Z,1008.64
2019-02-04T06:16:51.193Z,1008.67
2019-02-04T06:18:02.244Z,1008.66
2019-02-04T06:19:13.042Z,1008.65
2019-02-04T06:20:23.641Z,1008.65
2019-02-04T06:21:34.054Z,1008.55
2019-02-04T06:22:44.482Z,1008.56
2019-02-04T06:23:54.973Z,1008.65
2019-02-04T06:25:05.070Z,1008.56
2019-02-04T06:26:15.169Z,1008.54
2019-02-04T06:27:25.017Z,1008.64
2019-02-04T06:28:34.875Z,1008.67
2019-02-04T06:29:44.968Z,1008.68
2019-02-04T06:30:55.049Z,1008.7
2019-02-04T06:32:04.877Z,1008.76
2019-02-04T06:33:14.982Z,1008.71
2019-02-04T06:34:25.120Z,1008.78
2019-02-04T06:35:35.224Z,1008.87
2019-02-04T06:36:45.064Z,1008.93
2019-02-04T06:37:54.913Z,1009.05
2019-02-04T06:39:04.998Z,1008.91
2019-02-04T06:40:15.567Z,1008.98
2019-02-04T06:41:25.673Z,1009.04
2019-02-04T06:42:35.760Z,1009.01
2019-02-04T06:43:45.828Z,1009
2019-02-04T06:44:55.897Z,1009.06
2019-02-04T06:46:06.042Z,1009.05
2019-02-04T06:47:16.117Z,1009.06
2019-02-04T06:48:26.185Z,1009.1
2019-02-04T06:49:36.055Z,1009.18
2019-02-04T06:50:46.156Z,1009.18
2019-02-04T06:51:58.760Z,1009.22
2019-02-04T06:53:09.953Z,1009.31
2019-02-04T06:54:20.024Z,1009.27
2019-02-04T06:55:30.119Z,1009.29
2019-02-04T06:56:40.195Z,1009.37
2019-02-04T06:57:50.312Z,1009.39
2019-02-04T06:59:00.146Z,1009.37
2019-02-04T07:00:10.676Z,1009.42
2019-02-04T07:01:21.118Z,1009.43
2019-02-04T07:02:31.204Z,1009.45
2019-02-04T07:03:41.397Z,1009.41
2019-02-04T07:04:51.469Z,1009.42
2019-02-04T07:06:01.559Z,1009.51
2019-02-04T07:07:11.656Z,1009.56
2019-02-04T07:08:23.413Z,1009.61
2019-02-04T07:09:33.621Z,1009.64
2019-02-04T07:10:44.083Z,1009.69
2019-02-04T07:11:54.492Z,1009.67
2019-02-04T07:13:05.496Z,1009.71
2019-02-04T07:14:16.259Z,1009.75
2019-02-04T07:15:27.294Z,1009.78
2019-02-04T07:16:37.984Z,1009.89
2019-02-04T07:17:48.343Z,1009.81
2019-02-04T07:19:04.408Z,1009.84
2019-02-04T07:20:24.947Z,1009.83
2019-02-04T07:21:35.046Z,1009.91
2019-02-04T07:22:44.865Z,1009.97
2019-02-04T07:23:54.962Z,1009.87
2019-02-04T07:25:05.056Z,1009.96
2019-02-04T07:26:14.897Z,1009.96
2019-02-04T07:27:24.972Z,1010.07
2019-02-04T07:28:35.058Z,1010.04
2019-02-04T07:29:45.265Z,1010.12
2019-02-04T07:30:55.371Z,1010.12
2019-02-04T07:32:05.487Z,1010.17
2019-02-04T07:33:15.330Z,1010.22
2019-02-04T07:34:25.426Z,1010.3
2019-02-04T07:35:35.503Z,1010.28
2019-02-04T07:36:45.319Z,1010.33
2019-02-04T07:37:55.378Z,1010.33
2019-02-04T07:39:05.196Z,1010.38
2019-02-04T07:40:15.287Z,1010.4
2019-02-04T07:41:25.123Z,1010.41
2019-02-04T07:42:35.220Z,1010.4
2019-02-04T07:43:45.319Z,1010.42
2019-02-04T07:44:55.165Z,1010.49
2019-02-04T07:46:05.255Z,1010.5
2019-02-04T07:47:15.339Z,1010.53
2019-02-04T07:48:25.423Z,1010.5
2019-02-04T07:49:35.678Z,1010.6
2019-02-04T07:50:45.828Z,1010.61
2019-02-04T07:51:55.908Z,1010.68
2019-02-04T07:53:06.085Z,1010.74
2019-02-04T07:54:16.170Z,1010.75
2019-02-04T07:55:26.255Z,1010.78
2019-02-04T07:56:36.334Z,1010.72
2019-02-04T07:57:46.819Z,1010.82
2019-02-04T07:59:00.974Z,1010.88
2019-02-04T08:00:11.845Z,1010.88
2019-02-04T08:01:22.979Z,1010.95
2019-02-04T08:02:33.523Z,1010.93
2019-02-04T08:03:43.860Z,1010.93
2019-02-04T08:04:53.735Z,1010.94
2019-02-04T08:06:03.301Z,1010.92
2019-02-04T08:07:13.123Z,1010.99
2019-02-04T08:08:22.960Z,1011
2019-02-04T08:09:34.922Z,1011.04
2019-02-04T08:10:45.023Z,1011.04
2019-02-04T08:11:55.095Z,1011
2019-02-04T08:13:05.773Z,1011.05
2019-02-04T08:14:15.845Z,1011.13
2019-02-04T08:15:26.006Z,1011.13
2019-02-04T08:16:35.840Z,1011.23
2019-02-04T08:17:45.934Z,1011.28
2019-02-04T08:18:55.515Z,1011.31
2019-02-04T08:20:05.614Z,1011.3
2019-02-04T08:21:15.718Z,1011.37
2019-02-04T08:22:25.579Z,1011.28
2019-02-04T08:23:35.191Z,1011.28
2019-02-04T08:24:45.284Z,1011.38
2019-02-04T08:25:55.375Z,1011.33
2019-02-04T08:27:05.624Z,1011.37
2019-02-04T08:28:15.708Z,1011.42
2019-02-04T08:29:25.832Z,1011.42
2019-02-04T08:30:38.062Z,1011.42
2019-02-04T08:31:48.394Z,1011.44
2019-02-04T08:32:58.213Z,1011.46
2019-02-04T08:34:08.294Z,1011.49
2019-02-04T08:35:18.150Z,1011.52
2019-02-04T08:36:28.303Z,1011.5
2019-02-04T08:37:49.772Z,1011.56
2019-02-04T08:38:59.840Z,1011.55
2019-02-04T08:40:09.923Z,1011.55
2019-02-04T08:41:20.029Z,1011.5
2019-02-04T08:42:30.165Z,1011.55
2019-02-04T08:43:43.575Z,1011.61
2019-02-04T08:44:54.270Z,1011.46
2019-02-04T08:46:05.093Z,1011.46
2019-02-04T08:47:22.362Z,1011.52
2019-02-04T08:48:33.239Z,1011.55
2019-02-04T08:49:42.851Z,1011.57
2019-02-04T08:51:04.720Z,1011.56
2019-02-04T08:52:14.850Z,1011.56
2019-02-04T08:53:24.432Z,1011.61
2019-02-04T08:54:34.565Z,1011.71
2019-02-04T08:55:44.412Z,1011.67
2019-02-04T08:56:54.521Z,1011.71
2019-02-04T08:58:04.382Z,1011.75
2019-02-04T08:59:14.215Z,1011.74
2019-02-04T09:00:24.637Z,1011.74
2019-02-04T09:01:34.500Z,1011.79
2019-02-04T09:02:44.345Z,1011.82
2019-02-04T09:03:53.984Z,1011.78
2019-02-04T09:05:04.075Z,1011.78
2019-02-04T09:06:13.981Z,1011.81
2019-02-04T09:07:23.858Z,1011.79
2019-02-04T09:08:33.991Z,1011.77
2019-02-04T09:09:44.090Z,1011.78
2019-02-04T09:10:53.937Z,1011.77
2019-02-04T09:12:05.342Z,1011.71
2019-02-04T09:13:15.533Z,1011.81
2019-02-04T09:14:25.637Z,1011.65
2019-02-04T09:15:35.766Z,1011.79
2019-02-04T09:16:45.611Z,1011.82
2019-02-04T09:17:55.756Z,1011.89
2019-02-04T09:19:05.975Z,1011.84
2019-02-04T09:20:16.094Z,1011.81
2019-02-04T09:21:26.242Z,1011.87
2019-02-04T09:22:36.337Z,1011.87
2019-02-04T09:23:46.445Z,1011.94
2019-02-04T09:24:56.297Z,1011.91
2019-02-04T09:26:06.469Z,1011.95
2019-02-04T09:27:16.572Z,1012.02
2019-02-04T09:28:29.683Z,1011.91
2019-02-04T09:29:39.696Z,1011.88
2019-02-04T09:30:49.805Z,1011.91
2019-02-04T09:31:59.446Z,1011.88
2019-02-04T09:33:09.395Z,1011.94
2019-02-04T09:34:19.250Z,1011.98
2019-02-04T09:35:30.286Z,1012.01
2019-02-04T09:36:40.549Z,1012.02
2019-02-04T09:37:51.032Z,1012.05
2019-02-04T09:39:02.754Z,1012.08
2019-02-04T09:40:13.731Z,1012.03
2019-02-04T09:41:24.764Z,1012.07
2019-02-04T09:42:35.388Z,1012
2019-02-04T09:43:46.256Z,1012.04
2019-02-04T09:44:56.907Z,1011.96
2019-02-04T09:46:07.303Z,1011.93
2019-02-04T09:47:17.675Z,1012.06
2019-02-04T09:48:27.794Z,1012.07
2019-02-04T09:49:37.690Z,1011.98
2019-02-04T09:50:47.827Z,1012.11
2019-02-04T09:51:57.696Z,1012.04
2019-02-04T09:53:07.283Z,1012.1
2019-02-04T09:54:17.397Z,1012.06
2019-02-04T09:55:27.554Z,1012.05
2019-02-04T09:56:37.550Z,1012.06
2019-02-04T09:57:47.390Z,1012.09
2019-02-04T09:58:57.542Z,1012.1
2019-02-04T10:00:07.732Z,1012.1
2019-02-04T10:01:18.265Z,1012.01
2019-02-04T10:02:28.365Z,1011.98
2019-02-04T10:03:38.440Z,1012.01
2019-02-04T10:04:48.512Z,1012.03
2019-02-04T10:05:58.352Z,1012.1
2019-02-04T10:07:08.458Z,1012.08
2019-02-04T10:08:18.564Z,1012.04
2019-02-04T10:09:28.390Z,1012
2019-02-04T10:10:38.460Z,1011.92
2019-02-04T10:11:48.275Z,1011.98
2019-02-04T10:12:58.094Z,1011.93
2019-02-04T10:14:07.930Z,1011.91
2019-02-04T10:15:17.994Z,1011.93
2019-02-04T10:16:28.281Z,1011.9
2019-02-04T10:17:38.485Z,1011.93
2019-02-04T10:18:48.421Z,1011.92
2019-02-04T10:19:58.463Z,1011.88
2019-02-04T10:21:08.602Z,1011.92
2019-02-04T10:22:18.786Z,1011.85
2019-02-04T10:23:29.029Z,1011.89
2019-02-04T10:24:39.262Z,1011.88
2019-02-04T10:25:49.575Z,1011.89
2019-02-04T10:26:59.828Z,1011.91
2019-02-04T10:28:09.863Z,1011.9
2019-02-04T10:29:20.240Z,1011.88
2019-02-04T10:30:30.275Z,1011.93
2019-02-04T10:31:40.191Z,1011.9
2019-02-04T10:32:50.058Z,1011.99
2019-02-04T10:34:00.293Z,1011.98
2019-02-04T10:35:16.733Z,1011.98
2019-02-04T10:36:27.647Z,1012.04
2019-02-04T10:37:38.499Z,1012.04
2019-02-04T10:38:49.133Z,1011.91
2019-02-04T10:39:59.469Z,1012.09
2019-02-04T10:41:09.827Z,1012.06
2019-02-04T10:42:20.125Z,1012.1
2019-02-04T10:43:30.081Z,1012.08
2019-02-04T10:44:40.406Z,1012.1
2019-02-04T10:45:50.669Z,1012.15
2019-02-04T10:47:00.632Z,1012.11
2019-02-04T10:48:10.579Z,1012.05
2019-02-04T10:49:20.840Z,1012.15
2019-02-04T10:50:31.004Z,1012.13
2019-02-04T10:51:53.544Z,1012.07
2019-02-04T10:53:03.929Z,1012.1
2019-02-04T10:54:14.013Z,1012.11
2019-02-04T10:55:23.886Z,1012.11
2019-02-04T10:56:34.121Z,1012.13
2019-02-04T10:57:44.264Z,1012.11
2019-02-04T10:58:54.194Z,1012.15
2019-02-04T11:00:04.181Z,1012.13
2019-02-04T11:01:15.020Z,1012.09
2019-02-04T11:02:25.355Z,1012
2019-02-04T11:03:35.348Z,1012.02
2019-02-04T11:04:45.595Z,1012.03
2019-02-04T11:05:55.818Z,1012
2019-02-04T11:07:06.069Z,1011.97
2019-02-04T11:08:16.117Z,1011.98
2019-02-04T11:09:25.943Z,1011.96
2019-02-04T11:10:36.296Z,1011.99
2019-02-04T11:11:46.065Z,1011.99
2019-02-04T11:12:56.283Z,1011.96
2019-02-04T11:14:06.324Z,1011.96
2019-02-04T11:15:16.515Z,1011.87
2019-02-04T11:16:29.079Z,1011.93
2019-02-04T11:17:39.147Z,1011.88
2019-02-04T11:18:50.048Z,1011.89
2019-02-04T11:20:01.600Z,1011.88
2019-02-04T11:21:12.252Z,1011.87
2019-02-04T11:22:22.860Z,1011.88
2019-02-04T11:23:33.630Z,1011.85
2019-02-04T11:24:44.338Z,1011.84
2019-02-04T11:25:54.543Z,1011.88
2019-02-04T11:27:04.878Z,1011.89
2019-02-04T11:28:14.929Z,1011.96
2019-02-04T11:29:24.991Z,1011.94
2019-02-04T11:30:35.234Z,1011.91
2019-02-04T11:31:45.639Z,1011.96
2019-02-04T11:32:55.581Z,1011.93
2019-02-04T11:34:05.856Z,1011.89
2019-02-04T11:35:16.077Z,1011.92
2019-02-04T11:36:26.271Z,1011.91
2019-02-04T11:37:36.201Z,1011.96
2019-02-04T11:38:46.437Z,1011.96
2019-02-04T11:39:56.385Z,1012.03
2019-02-04T11:41:06.535Z,1011.99
2019-02-04T11:42:16.653Z,1012.03
2019-02-04T11:43:26.639Z,1011.99
2019-02-04T11:44:36.690Z,1012
2019-02-04T11:45:46.930Z,1011.92
2019-02-04T11:47:00.396Z,1011.95
2019-02-04T11:48:10.362Z,1011.96
2019-02-04T11:49:20.450Z,1011.91
2019-02-04T11:50:30.295Z,1011.94
2019-02-04T11:51:40.384Z,1011.92
2019-02-04T11:52:50.504Z,1011.96
2019-02-04T11:54:02.242Z,1011.94
2019-02-04T11:55:12.330Z,1011.94
2019-02-04T11:56:22.409Z,1011.95
2019-02-04T11:57:32.525Z,1011.93
2019-02-04T11:58:42.607Z,1011.92
2019-02-04T11:59:52.419Z,1011.95
2019-02-04T12:01:02.588Z,1011.88
2019-02-04T12:02:12.409Z,1011.88
2019-02-04T12:03:23.291Z,1011.82
2019-02-04T12:04:33.373Z,1011.76
2019-02-04T12:05:43.201Z,1011.79
2019-02-04T12:06:53.060Z,1011.73
2019-02-04T12:08:04.581Z,1011.74
2019-02-04T12:09:14.978Z,1011.79
2019-02-04T12:10:25.608Z,1011.8
2019-02-04T12:11:36.496Z,1011.86
2019-02-04T12:12:47.154Z,1011.89
2019-02-04T12:13:58.087Z,1011.85
2019-02-04T12:15:08.652Z,1011.87
2019-02-04T12:16:19.242Z,1011.87
2019-02-04T12:17:28.725Z,1011.82
2019-02-04T12:18:39.177Z,1011.81
2019-02-04T12:19:49.259Z,1011.84
2019-02-04T12:20:59.097Z,1011.75
2019-02-04T12:22:09.190Z,1011.77
2019-02-04T12:23:19.301Z,1011.8
2019-02-04T12:24:29.462Z,1011.82
2019-02-04T12:25:39.583Z,1011.84
2019-02-04T12:26:49.852Z,1011.79
2019-02-04T12:27:59.469Z,1011.76
2019-02-04T12:29:09.573Z,1011.84
2019-02-04T12:30:19.683Z,1011.77
2019-02-04T12:31:31.626Z,1011.76
2019-02-04T12:32:41.765Z,1011.77
2019-02-04T12:33:51.915Z,1011.7
2019-02-04T12:35:02.014Z,1011.69
2019-02-04T12:36:12.137Z,1011.65
2019-02-04T12:37:22.313Z,1011.66
2019-02-04T12:38:35.342Z,1011.59
2019-02-04T12:39:45.486Z,1011.59
2019-02-04T12:40:55.592Z,1011.66
2019-02-04T12:42:05.912Z,1011.6
2019-02-04T12:43:16.002Z,1011.71
2019-02-04T12:44:28.580Z,1011.71
2019-02-04T12:45:38.670Z,1011.67
2019-02-04T12:46:48.752Z,1011.6
2019-02-04T12:48:00.771Z,1011.65
2019-02-04T12:49:11.103Z,1011.66
2019-02-04T12:50:23.063Z,1011.59
2019-02-04T12:51:34.015Z,1011.61
2019-02-04T12:52:43.907Z,1011.59
2019-02-04T12:53:53.755Z,1011.57
2019-02-04T12:55:03.827Z,1011.57
2019-02-04T12:56:13.908Z,1011.59
2019-02-04T12:57:23.988Z,1011.63
2019-02-04T12:58:34.407Z,1011.62
2019-02-04T12:59:55.790Z,1011.59
2019-02-04T13:01:06.583Z,1011.63
2019-02-04T13:02:16.543Z,1011.62
2019-02-04T13:03:26.126Z,1011.62
2019-02-04T13:04:36.225Z,1011.69
2019-02-04T13:05:46.114Z,1011.66
2019-02-04T13:06:56.197Z,1011.72
2019-02-04T13:08:06.880Z,1011.71
2019-02-04T13:09:16.717Z,1011.79
2019-02-04T13:10:26.801Z,1011.84
2019-02-04T13:11:36.616Z,1011.86
2019-02-04T13:12:46.720Z,1011.86
2019-02-04T13:13:56.826Z,1011.84
2019-02-04T13:15:06.911Z,1011.79
2019-02-04T13:16:16.477Z,1011.8
2019-02-04T13:17:26.862Z,1011.76
2019-02-04T13:18:37.089Z,1011.72
2019-02-04T13:19:47.186Z,1011.74
2019-02-04T13:20:57.370Z,1011.71
2019-02-04T13:22:07.582Z,1011.75
2019-02-04T13:23:17.687Z,1011.73
2019-02-04T13:24:27.792Z,1011.65
2019-02-04T13:25:37.874Z,1011.67
2019-02-04T13:26:47.988Z,1011.58
2019-02-04T13:27:58.068Z,1011.56
2019-02-04T13:29:07.694Z,1011.51
2019-02-04T13:30:17.835Z,1011.51
2019-02-04T13:31:28.044Z,1011.53
2019-02-04T13:32:38.123Z,1011.51
2019-02-04T13:33:48.181Z,1011.54
2019-02-04T13:34:58.009Z,1011.53
2019-02-04T13:36:08.402Z,1011.5
2019-02-04T13:37:18.499Z,1011.56
2019-02-04T13:38:28.322Z,1011.62
2019-02-04T13:39:38.404Z,1011.65
2019-02-04T13:40:48.251Z,1011.61
2019-02-04T13:42:12.479Z,1011.61
2019-02-04T13:43:23.335Z,1011.6
2019-02-04T13:44:33.849Z,1011.58
2019-02-04T13:45:44.420Z,1011.6
2019-02-04T13:46:54.945Z,1011.54
2019-02-04T13:48:08.367Z,1011.55
2019-02-04T13:49:18.783Z,1011.49
2019-02-04T13:50:28.641Z,1011.56
2019-02-04T13:51:38.717Z,1011.52
2019-02-04T13:52:59.639Z,1011.56
2019-02-04T13:54:09.742Z,1011.63
2019-02-04T13:55:19.566Z,1011.61
2019-02-04T13:56:29.391Z,1011.63
2019-02-04T13:57:39.587Z,1011.64
2019-02-04T13:58:49.658Z,1011.65
2019-02-04T13:59:59.534Z,1011.67
2019-02-04T14:01:10.037Z,1011.67
2019-02-04T14:02:20.144Z,1011.68
2019-02-04T14:03:30.220Z,1011.68
2019-02-04T14:04:40.323Z,1011.69
2019-02-04T14:05:50.137Z,1011.71
2019-02-04T14:07:00.379Z,1011.65
2019-02-04T14:08:10.254Z,1011.67
2019-02-04T14:09:20.319Z,1011.66
2019-02-04T14:10:30.426Z,1011.67
2019-02-04T14:11:40.542Z,1011.66
2019-02-04T14:12:50.623Z,1011.64
2019-02-04T14:14:00.774Z,1011.66
2019-02-04T14:15:10.867Z,1011.68
2019-02-04T14:16:21.026Z,1011.65
2019-02-04T14:17:30.871Z,1011.7
2019-02-04T14:18:41.115Z,1011.69
2019-02-04T14:19:51.347Z,1011.66
2019-02-04T14:21:01.788Z,1011.7
2019-02-04T14:22:14.277Z,1011.71
2019-02-04T14:23:27.395Z,1011.74
2019-02-04T14:24:38.229Z,1011.7
2019-02-04T14:25:48.767Z,1011.67
2019-02-04T14:26:59.009Z,1011.66
2019-02-04T14:28:08.836Z,1011.65
2019-02-04T14:29:18.679Z,1011.62
2019-02-04T14:30:28.573Z,1011.53
2019-02-04T14:31:38.672Z,1011.59
2019-02-04T14:32:48.750Z,1011.57
2019-02-04T14:33:58.828Z,1011.56
2019-02-04T14:35:11.748Z,1011.62
2019-02-04T14:36:21.889Z,1011.66
2019-02-04T14:37:31.731Z,1011.69
2019-02-04T14:38:41.835Z,1011.7
2019-02-04T14:39:51.676Z,1011.69
2019-02-04T14:41:01.790Z,1011.76
2019-02-04T14:42:11.925Z,1011.7
2019-02-04T14:43:22.033Z,1011.71
2019-02-04T14:44:32.154Z,1011.68
2019-02-04T14:45:43.244Z,1011.68